sensor_id;sensor_type;location;lat;lon;timestamp;P1;durP1;ratioP1;P2;durP2;ratioP2
68126;SDS011;54931;52.098;21.006;2024-02-28T00:01:36;80.90;;;37.80;;
68126;SDS011;54931;52.098;21.006;2024-02-28T00:04:04;83.30;;;37.10;;
68126;SDS011;54931;52.098;21.006;2024-02-28T00:06:32;83.80;;;36.70;;
68126;SDS011;54931;52.098;21.006;2024-02-28T00:09:00;78.30;;;35.00;;
68126;SDS011;54931;52.098;21.006;2024-02-28T00:11:27;71.70;;;33.10;;
68126;SDS011;54931;52.098;21.006;2024-02-28T00:13:54;71.40;;;31.80;;
68126;SDS011;54931;52.098;21.006;2024-02-28T00:16:22;75.00;;;34.50;;
68126;SDS011;54931;52.098;21.006;2024-02-28T00:18:50;74.10;;;32.60;;
68126;SDS011;54931;52.098;21.006;2024-02-28T00:21:17;82.80;;;37.00;;
68126;SDS011;54931;52.098;21.006;2024-02-28T00:23:45;73.70;;;33.80;;
68126;SDS011;54931;52.098;21.006;2024-02-28T00:26:13;71.40;;;32.00;;
68126;SDS011;54931;52.098;21.006;2024-02-28T00:28:41;68.90;;;31.30;;
68126;SDS011;54931;52.098;21.006;2024-02-28T00:31:09;70.40;;;30.80;;
68126;SDS011;54931;52.098;21.006;2024-02-28T00:33:36;80.30;;;33.80;;
68126;SDS011;54931;52.098;21.006;2024-02-28T00:36:04;63.10;;;29.40;;
68126;SDS011;54931;52.098;21.006;2024-02-28T00:38:32;64.50;;;29.40;;
68126;SDS011;54931;52.098;21.006;2024-02-28T00:40:59;80.60;;;35.60;;
68126;SDS011;54931;52.098;21.006;2024-02-28T00:43:27;81.80;;;35.00;;
68126;SDS011;54931;52.098;21.006;2024-02-28T00:45:55;88.10;;;38.40;;
68126;SDS011;54931;52.098;21.006;2024-02-28T00:48:22;88.40;;;38.20;;
68126;SDS011;54931;52.098;21.006;2024-02-28T00:50:50;86.20;;;39.20;;
68126;SDS011;54931;52.098;21.006;2024-02-28T00:53:20;83.70;;;37.30;;
68126;SDS011;54931;52.098;21.006;2024-02-28T00:55:48;73.90;;;32.10;;
68126;SDS011;54931;52.098;21.006;2024-02-28T00:58:15;66.70;;;29.30;;
68126;SDS011;54931;52.098;21.006;2024-02-28T01:00:43;66.80;;;30.80;;
68126;SDS011;54931;52.098;21.006;2024-02-28T01:03:11;79.90;;;32.90;;
68126;SDS011;54931;52.098;21.006;2024-02-28T01:05:42;78.10;;;33.90;;
68126;SDS011;54931;52.098;21.006;2024-02-28T01:08:09;72.70;;;33.70;;
68126;SDS011;54931;52.098;21.006;2024-02-28T01:10:37;73.70;;;33.70;;
68126;SDS011;54931;52.098;21.006;2024-02-28T01:13:05;72.80;;;33.80;;
68126;SDS011;54931;52.098;21.006;2024-02-28T01:15:32;82.80;;;36.40;;
68126;SDS011;54931;52.098;21.006;2024-02-28T01:18:00;77.40;;;33.20;;
68126;SDS011;54931;52.098;21.006;2024-02-28T01:20:28;80.50;;;35.90;;
68126;SDS011;54931;52.098;21.006;2024-02-28T01:22:56;85.50;;;38.90;;
68126;SDS011;54931;52.098;21.006;2024-02-28T01:25:23;83.30;;;39.00;;
68126;SDS011;54931;52.098;21.006;2024-02-28T01:27:51;86.20;;;38.40;;
68126;SDS011;54931;52.098;21.006;2024-02-28T01:30:18;88.70;;;38.90;;
68126;SDS011;54931;52.098;21.006;2024-02-28T01:32:46;86.00;;;38.30;;
68126;SDS011;54931;52.098;21.006;2024-02-28T01:35:14;72.60;;;32.70;;
68126;SDS011;54931;52.098;21.006;2024-02-28T01:37:41;78.10;;;35.90;;
68126;SDS011;54931;52.098;21.006;2024-02-28T01:40:10;81.40;;;37.10;;
68126;SDS011;54931;52.098;21.006;2024-02-28T01:42:38;65.80;;;30.30;;
68126;SDS011;54931;52.098;21.006;2024-02-28T01:45:06;67.70;;;29.40;;
68126;SDS011;54931;52.098;21.006;2024-02-28T01:47:36;65.30;;;30.70;;
68126;SDS011;54931;52.098;21.006;2024-02-28T01:50:05;68.60;;;32.10;;
68126;SDS011;54931;52.098;21.006;2024-02-28T01:52:36;57.60;;;26.00;;
68126;SDS011;54931;52.098;21.006;2024-02-28T01:55:05;59.00;;;27.80;;
68126;SDS011;54931;52.098;21.006;2024-02-28T01:57:36;66.20;;;29.60;;
68126;SDS011;54931;52.098;21.006;2024-02-28T02:00:06;69.10;;;29.80;;
68126;SDS011;54931;52.098;21.006;2024-02-28T02:02:37;63.20;;;30.50;;
68126;SDS011;54931;52.098;21.006;2024-02-28T02:05:05;65.90;;;29.50;;
68126;SDS011;54931;52.098;21.006;2024-02-28T02:07:34;69.90;;;32.90;;
68126;SDS011;54931;52.098;21.006;2024-02-28T02:10:02;69.40;;;33.30;;
68126;SDS011;54931;52.098;21.006;2024-02-28T02:12:35;80.70;;;37.30;;
68126;SDS011;54931;52.098;21.006;2024-02-28T02:15:03;75.20;;;34.50;;
68126;SDS011;54931;52.098;21.006;2024-02-28T02:17:31;85.90;;;38.80;;
68126;SDS011;54931;52.098;21.006;2024-02-28T02:19:59;83.10;;;38.20;;
68126;SDS011;54931;52.098;21.006;2024-02-28T02:24:55;90.30;;;40.90;;
68126;SDS011;54931;52.098;21.006;2024-02-28T02:27:24;86.50;;;39.70;;
68126;SDS011;54931;52.098;21.006;2024-02-28T02:29:53;81.70;;;38.40;;
68126;SDS011;54931;52.098;21.006;2024-02-28T02:32:20;78.30;;;36.20;;
68126;SDS011;54931;52.098;21.006;2024-02-28T02:34:48;80.20;;;36.40;;
68126;SDS011;54931;52.098;21.006;2024-02-28T02:37:16;84.30;;;38.50;;
68126;SDS011;54931;52.098;21.006;2024-02-28T02:39:43;81.60;;;36.60;;
68126;SDS011;54931;52.098;21.006;2024-02-28T02:42:11;73.00;;;33.10;;
68126;SDS011;54931;52.098;21.006;2024-02-28T02:44:42;81.60;;;37.00;;
68126;SDS011;54931;52.098;21.006;2024-02-28T02:47:10;73.00;;;32.90;;
68126;SDS011;54931;52.098;21.006;2024-02-28T02:49:37;68.20;;;30.50;;
68126;SDS011;54931;52.098;21.006;2024-02-28T02:52:05;69.60;;;29.40;;
68126;SDS011;54931;52.098;21.006;2024-02-28T02:54:33;70.50;;;32.40;;
68126;SDS011;54931;52.098;21.006;2024-02-28T02:57:01;73.90;;;34.20;;
68126;SDS011;54931;52.098;21.006;2024-02-28T02:59:29;80.00;;;35.20;;
68126;SDS011;54931;52.098;21.006;2024-02-28T03:01:56;77.20;;;34.70;;
68126;SDS011;54931;52.098;21.006;2024-02-28T03:04:24;78.60;;;37.10;;
68126;SDS011;54931;52.098;21.006;2024-02-28T03:06:52;78.60;;;33.90;;
68126;SDS011;54931;52.098;21.006;2024-02-28T03:09:19;81.90;;;37.10;;
68126;SDS011;54931;52.098;21.006;2024-02-28T03:11:47;82.20;;;37.20;;
68126;SDS011;54931;52.098;21.006;2024-02-28T03:14:16;71.70;;;31.40;;
68126;SDS011;54931;52.098;21.006;2024-02-28T03:16:43;63.80;;;28.70;;
68126;SDS011;54931;52.098;21.006;2024-02-28T03:19:11;67.50;;;31.20;;
68126;SDS011;54931;52.098;21.006;2024-02-28T03:21:39;75.60;;;34.50;;
68126;SDS011;54931;52.098;21.006;2024-02-28T03:24:07;67.40;;;31.60;;
68126;SDS011;54931;52.098;21.006;2024-02-28T03:26:35;73.30;;;31.70;;
68126;SDS011;54931;52.098;21.006;2024-02-28T03:29:03;78.70;;;36.50;;
68126;SDS011;54931;52.098;21.006;2024-02-28T03:31:31;65.60;;;32.10;;
68126;SDS011;54931;52.098;21.006;2024-02-28T03:33:58;84.60;;;37.20;;
68126;SDS011;54931;52.098;21.006;2024-02-28T03:36:28;79.00;;;37.10;;
68126;SDS011;54931;52.098;21.006;2024-02-28T03:38:56;84.30;;;37.10;;
68126;SDS011;54931;52.098;21.006;2024-02-28T03:41:23;85.00;;;39.20;;
68126;SDS011;54931;52.098;21.006;2024-02-28T03:43:51;85.50;;;39.40;;
68126;SDS011;54931;52.098;21.006;2024-02-28T03:46:19;76.60;;;35.60;;
68126;SDS011;54931;52.098;21.006;2024-02-28T03:48:48;73.20;;;33.30;;
68126;SDS011;54931;52.098;21.006;2024-02-28T03:51:16;74.20;;;33.60;;
68126;SDS011;54931;52.098;21.006;2024-02-28T03:53:44;75.50;;;34.90;;
68126;SDS011;54931;52.098;21.006;2024-02-28T03:56:11;76.60;;;35.30;;
68126;SDS011;54931;52.098;21.006;2024-02-28T03:58:40;76.90;;;35.10;;
68126;SDS011;54931;52.098;21.006;2024-02-28T04:01:08;72.70;;;32.40;;
68126;SDS011;54931;52.098;21.006;2024-02-28T04:03:36;79.40;;;35.50;;
68126;SDS011;54931;52.098;21.006;2024-02-28T04:06:03;71.70;;;33.80;;
68126;SDS011;54931;52.098;21.006;2024-02-28T04:08:31;69.60;;;40.90;;
68126;SDS011;54931;52.098;21.006;2024-02-28T04:10:59;62.10;;;29.40;;
68126;SDS011;54931;52.098;21.006;2024-02-28T04:13:46;69.30;;;30.40;;
68126;SDS011;54931;52.098;21.006;2024-02-28T04:16:27;67.00;;;30.20;;
68126;SDS011;54931;52.098;21.006;2024-02-28T04:19:14;73.00;;;31.60;;
68126;SDS011;54931;52.098;21.006;2024-02-28T04:24:30;60.90;;;29.40;;
68126;SDS011;54931;52.098;21.006;2024-02-28T04:26:59;66.30;;;30.30;;
68126;SDS011;54931;52.098;21.006;2024-02-28T04:29:27;64.10;;;27.90;;
68126;SDS011;54931;52.098;21.006;2024-02-28T04:34:22;57.70;;;26.70;;
68126;SDS011;54931;52.098;21.006;2024-02-28T04:36:49;66.80;;;30.40;;
68126;SDS011;54931;52.098;21.006;2024-02-28T04:39:17;64.50;;;30.20;;
68126;SDS011;54931;52.098;21.006;2024-02-28T04:41:45;60.70;;;28.40;;
68126;SDS011;54931;52.098;21.006;2024-02-28T04:44:12;70.40;;;30.80;;
68126;SDS011;54931;52.098;21.006;2024-02-28T04:46:40;61.10;;;30.10;;
68126;SDS011;54931;52.098;21.006;2024-02-28T04:49:08;70.00;;;31.20;;
68126;SDS011;54931;52.098;21.006;2024-02-28T04:51:36;70.50;;;31.60;;
68126;SDS011;54931;52.098;21.006;2024-02-28T04:54:04;67.50;;;31.40;;
68126;SDS011;54931;52.098;21.006;2024-02-28T04:56:32;70.40;;;31.20;;
68126;SDS011;54931;52.098;21.006;2024-02-28T04:58:59;67.00;;;30.10;;
68126;SDS011;54931;52.098;21.006;2024-02-28T05:01:27;69.90;;;32.70;;
68126;SDS011;54931;52.098;21.006;2024-02-28T05:03:55;71.70;;;31.40;;
68126;SDS011;54931;52.098;21.006;2024-02-28T05:06:23;75.10;;;33.40;;
68126;SDS011;54931;52.098;21.006;2024-02-28T05:08:51;70.90;;;32.60;;
68126;SDS011;54931;52.098;21.006;2024-02-28T05:11:18;72.10;;;33.40;;
68126;SDS011;54931;52.098;21.006;2024-02-28T05:13:46;74.90;;;34.40;;
68126;SDS011;54931;52.098;21.006;2024-02-28T05:16:14;76.80;;;32.90;;
68126;SDS011;54931;52.098;21.006;2024-02-28T05:18:46;67.80;;;30.30;;
68126;SDS011;54931;52.098;21.006;2024-02-28T05:21:14;64.60;;;30.40;;
68126;SDS011;54931;52.098;21.006;2024-02-28T05:23:42;69.80;;;31.10;;
68126;SDS011;54931;52.098;21.006;2024-02-28T05:26:09;76.50;;;33.20;;
68126;SDS011;54931;52.098;21.006;2024-02-28T05:28:38;75.80;;;33.80;;
68126;SDS011;54931;52.098;21.006;2024-02-28T05:31:23;74.00;;;34.80;;
68126;SDS011;54931;52.098;21.006;2024-02-28T05:33:53;67.70;;;31.60;;
68126;SDS011;54931;52.098;21.006;2024-02-28T05:36:24;72.50;;;33.60;;
68126;SDS011;54931;52.098;21.006;2024-02-28T05:38:58;74.00;;;33.00;;
68126;SDS011;54931;52.098;21.006;2024-02-28T05:41:28;73.60;;;34.00;;
68126;SDS011;54931;52.098;21.006;2024-02-28T05:43:56;71.10;;;33.40;;
68126;SDS011;54931;52.098;21.006;2024-02-28T05:46:24;69.60;;;32.10;;
68126;SDS011;54931;52.098;21.006;2024-02-28T05:48:51;80.00;;;35.90;;
68126;SDS011;54931;52.098;21.006;2024-02-28T05:51:19;75.50;;;34.90;;
68126;SDS011;54931;52.098;21.006;2024-02-28T05:53:47;76.70;;;34.10;;
68126;SDS011;54931;52.098;21.006;2024-02-28T05:56:15;74.40;;;34.80;;
68126;SDS011;54931;52.098;21.006;2024-02-28T05:58:44;72.80;;;32.70;;
68126;SDS011;54931;52.098;21.006;2024-02-28T06:01:15;71.30;;;31.70;;
68126;SDS011;54931;52.098;21.006;2024-02-28T06:03:48;76.70;;;34.70;;
68126;SDS011;54931;52.098;21.006;2024-02-28T06:06:16;69.90;;;32.30;;
68126;SDS011;54931;52.098;21.006;2024-02-28T06:08:45;63.40;;;29.40;;
68126;SDS011;54931;52.098;21.006;2024-02-28T06:11:12;72.40;;;33.10;;
68126;SDS011;54931;52.098;21.006;2024-02-28T06:13:41;79.80;;;36.30;;
68126;SDS011;54931;52.098;21.006;2024-02-28T06:16:15;63.60;;;27.40;;
68126;SDS011;54931;52.098;21.006;2024-02-28T06:18:45;71.60;;;31.70;;
68126;SDS011;54931;52.098;21.006;2024-02-28T06:21:13;73.60;;;31.10;;
68126;SDS011;54931;52.098;21.006;2024-02-28T06:23:41;66.30;;;30.60;;
68126;SDS011;54931;52.098;21.006;2024-02-28T06:26:10;70.50;;;31.40;;
68126;SDS011;54931;52.098;21.006;2024-02-28T06:28:44;78.90;;;36.20;;
68126;SDS011;54931;52.098;21.006;2024-02-28T06:31:15;69.70;;;31.70;;
68126;SDS011;54931;52.098;21.006;2024-02-28T06:33:44;66.80;;;32.50;;
68126;SDS011;54931;52.098;21.006;2024-02-28T06:36:12;64.30;;;25.10;;
68126;SDS011;54931;52.098;21.006;2024-02-28T06:38:40;65.80;;;28.60;;
68126;SDS011;54931;52.098;21.006;2024-02-28T06:41:08;64.80;;;28.20;;
68126;SDS011;54931;52.098;21.006;2024-02-28T06:43:36;67.00;;;31.10;;
68126;SDS011;54931;52.098;21.006;2024-02-28T06:46:04;62.80;;;27.10;;
68126;SDS011;54931;52.098;21.006;2024-02-28T06:48:32;76.70;;;33.50;;
68126;SDS011;54931;52.098;21.006;2024-02-28T06:51:00;67.80;;;29.50;;
68126;SDS011;54931;52.098;21.006;2024-02-28T06:53:28;68.30;;;32.80;;
68126;SDS011;54931;52.098;21.006;2024-02-28T06:55:56;73.50;;;32.60;;
68126;SDS011;54931;52.098;21.006;2024-02-28T06:58:24;69.70;;;33.50;;
68126;SDS011;54931;52.098;21.006;2024-02-28T07:00:52;72.50;;;32.30;;
68126;SDS011;54931;52.098;21.006;2024-02-28T07:03:20;79.50;;;34.00;;
68126;SDS011;54931;52.098;21.006;2024-02-28T07:05:48;67.30;;;31.10;;
68126;SDS011;54931;52.098;21.006;2024-02-28T07:08:15;79.50;;;35.70;;
68126;SDS011;54931;52.098;21.006;2024-02-28T07:10:43;73.10;;;33.60;;
68126;SDS011;54931;52.098;21.006;2024-02-28T07:13:15;58.60;;;24.00;;
68126;SDS011;54931;52.098;21.006;2024-02-28T07:15:43;75.00;;;33.30;;
68126;SDS011;54931;52.098;21.006;2024-02-28T07:18:11;52.70;;;24.60;;
68126;SDS011;54931;52.098;21.006;2024-02-28T07:20:39;76.10;;;34.90;;
68126;SDS011;54931;52.098;21.006;2024-02-28T07:23:07;75.90;;;34.30;;
68126;SDS011;54931;52.098;21.006;2024-02-28T07:25:35;75.00;;;33.20;;
68126;SDS011;54931;52.098;21.006;2024-02-28T07:28:03;65.00;;;30.20;;
68126;SDS011;54931;52.098;21.006;2024-02-28T07:30:31;72.70;;;33.20;;
68126;SDS011;54931;52.098;21.006;2024-02-28T07:32:59;77.70;;;35.60;;
68126;SDS011;54931;52.098;21.006;2024-02-28T07:35:27;78.60;;;35.20;;
68126;SDS011;54931;52.098;21.006;2024-02-28T07:37:54;74.40;;;32.50;;
68126;SDS011;54931;52.098;21.006;2024-02-28T07:40:22;76.20;;;35.40;;
68126;SDS011;54931;52.098;21.006;2024-02-28T07:42:50;73.10;;;33.00;;
68126;SDS011;54931;52.098;21.006;2024-02-28T07:45:17;67.80;;;32.00;;
68126;SDS011;54931;52.098;21.006;2024-02-28T07:47:46;75.70;;;34.20;;
68126;SDS011;54931;52.098;21.006;2024-02-28T07:50:14;74.60;;;34.10;;
68126;SDS011;54931;52.098;21.006;2024-02-28T07:52:43;79.50;;;35.20;;
68126;SDS011;54931;52.098;21.006;2024-02-28T07:55:11;72.20;;;34.50;;
68126;SDS011;54931;52.098;21.006;2024-02-28T07:57:39;73.60;;;34.90;;
68126;SDS011;54931;52.098;21.006;2024-02-28T08:00:07;79.60;;;34.30;;
68126;SDS011;54931;52.098;21.006;2024-02-28T08:02:39;73.50;;;33.90;;
68126;SDS011;54931;52.098;21.006;2024-02-28T08:05:07;88.60;;;38.60;;
68126;SDS011;54931;52.098;21.006;2024-02-28T08:07:35;77.30;;;35.60;;
68126;SDS011;54931;52.098;21.006;2024-02-28T08:10:04;83.80;;;39.10;;
68126;SDS011;54931;52.098;21.006;2024-02-28T08:12:32;76.80;;;37.30;;
68126;SDS011;54931;52.098;21.006;2024-02-28T08:15:00;72.80;;;34.30;;
68126;SDS011;54931;52.098;21.006;2024-02-28T08:17:28;83.70;;;37.20;;
68126;SDS011;54931;52.098;21.006;2024-02-28T08:19:56;71.10;;;32.10;;
68126;SDS011;54931;52.098;21.006;2024-02-28T08:22:23;89.50;;;39.50;;
68126;SDS011;54931;52.098;21.006;2024-02-28T08:24:52;85.00;;;37.80;;
68126;SDS011;54931;52.098;21.006;2024-02-28T08:27:20;77.30;;;38.50;;
68126;SDS011;54931;52.098;21.006;2024-02-28T08:29:48;82.80;;;37.40;;
68126;SDS011;54931;52.098;21.006;2024-02-28T08:32:17;71.60;;;34.00;;
68126;SDS011;54931;52.098;21.006;2024-02-28T08:34:46;81.90;;;37.70;;
68126;SDS011;54931;52.098;21.006;2024-02-28T08:37:13;77.20;;;36.00;;
68126;SDS011;54931;52.098;21.006;2024-02-28T08:39:41;82.10;;;39.50;;
68126;SDS011;54931;52.098;21.006;2024-02-28T08:42:09;82.30;;;37.20;;
68126;SDS011;54931;52.098;21.006;2024-02-28T08:44:37;77.10;;;37.40;;
68126;SDS011;54931;52.098;21.006;2024-02-28T08:47:05;83.40;;;37.30;;
68126;SDS011;54931;52.098;21.006;2024-02-28T08:49:36;77.70;;;35.70;;
68126;SDS011;54931;52.098;21.006;2024-02-28T08:52:06;87.50;;;38.50;;
68126;SDS011;54931;52.098;21.006;2024-02-28T08:54:34;90.60;;;40.80;;
68126;SDS011;54931;52.098;21.006;2024-02-28T08:57:02;81.90;;;37.90;;
68126;SDS011;54931;52.098;21.006;2024-02-28T08:59:31;80.30;;;35.50;;
68126;SDS011;54931;52.098;21.006;2024-02-28T09:01:59;76.90;;;37.40;;
68126;SDS011;54931;52.098;21.006;2024-02-28T09:04:26;79.80;;;36.60;;
68126;SDS011;54931;52.098;21.006;2024-02-28T09:06:54;83.30;;;40.70;;
68126;SDS011;54931;52.098;21.006;2024-02-28T09:09:22;81.50;;;40.20;;
68126;SDS011;54931;52.098;21.006;2024-02-28T09:11:50;75.40;;;37.00;;
68126;SDS011;54931;52.098;21.006;2024-02-28T09:14:18;76.00;;;35.10;;
68126;SDS011;54931;52.098;21.006;2024-02-28T09:16:46;81.00;;;38.50;;
68126;SDS011;54931;52.098;21.006;2024-02-28T09:19:15;83.80;;;38.90;;
68126;SDS011;54931;52.098;21.006;2024-02-28T09:21:42;77.50;;;38.20;;
68126;SDS011;54931;52.098;21.006;2024-02-28T09:24:10;72.90;;;36.50;;
68126;SDS011;54931;52.098;21.006;2024-02-28T09:26:40;80.80;;;38.20;;
68126;SDS011;54931;52.098;21.006;2024-02-28T09:29:08;74.90;;;38.00;;
68126;SDS011;54931;52.098;21.006;2024-02-28T09:31:35;69.10;;;35.80;;
68126;SDS011;54931;52.098;21.006;2024-02-28T09:34:03;71.30;;;34.60;;
68126;SDS011;54931;52.098;21.006;2024-02-28T09:36:43;63.00;;;27.80;;
68126;SDS011;54931;52.098;21.006;2024-02-28T09:39:13;68.50;;;34.60;;
68126;SDS011;54931;52.098;21.006;2024-02-28T09:41:42;67.40;;;35.00;;
68126;SDS011;54931;52.098;21.006;2024-02-28T09:44:10;59.60;;;31.10;;
68126;SDS011;54931;52.098;21.006;2024-02-28T09:46:39;59.30;;;30.70;;
68126;SDS011;54931;52.098;21.006;2024-02-28T09:49:07;54.20;;;27.10;;
68126;SDS011;54931;52.098;21.006;2024-02-28T09:51:37;54.50;;;27.20;;
68126;SDS011;54931;52.098;21.006;2024-02-28T09:54:05;58.80;;;31.70;;
68126;SDS011;54931;52.098;21.006;2024-02-28T09:56:33;61.50;;;31.40;;
68126;SDS011;54931;52.098;21.006;2024-02-28T09:59:02;64.10;;;31.40;;
68126;SDS011;54931;52.098;21.006;2024-02-28T10:01:36;61.60;;;32.00;;
68126;SDS011;54931;52.098;21.006;2024-02-28T10:04:10;59.40;;;30.80;;
68126;SDS011;54931;52.098;21.006;2024-02-28T10:06:40;56.40;;;27.80;;
68126;SDS011;54931;52.098;21.006;2024-02-28T10:09:08;55.70;;;28.50;;
68126;SDS011;54931;52.098;21.006;2024-02-28T10:11:37;57.40;;;30.70;;
68126;SDS011;54931;52.098;21.006;2024-02-28T10:14:08;66.20;;;31.00;;
68126;SDS011;54931;52.098;21.006;2024-02-28T10:16:36;59.90;;;37.20;;
68126;SDS011;54931;52.098;21.006;2024-02-28T10:19:05;54.20;;;28.30;;
68126;SDS011;54931;52.098;21.006;2024-02-28T10:21:33;49.20;;;24.30;;
68126;SDS011;54931;52.098;21.006;2024-02-28T10:24:01;53.90;;;27.60;;
68126;SDS011;54931;52.098;21.006;2024-02-28T10:26:30;47.50;;;24.40;;
68126;SDS011;54931;52.098;21.006;2024-02-28T10:29:03;54.60;;;27.30;;
68126;SDS011;54931;52.098;21.006;2024-02-28T10:31:34;52.20;;;25.60;;
68126;SDS011;54931;52.098;21.006;2024-02-28T10:34:04;53.20;;;26.50;;
68126;SDS011;54931;52.098;21.006;2024-02-28T10:36:32;51.10;;;26.30;;
68126;SDS011;54931;52.098;21.006;2024-02-28T10:39:00;52.40;;;26.70;;
68126;SDS011;54931;52.098;21.006;2024-02-28T10:41:30;54.20;;;27.10;;
68126;SDS011;54931;52.098;21.006;2024-02-28T10:44:00;47.50;;;24.80;;
68126;SDS011;54931;52.098;21.006;2024-02-28T10:46:29;48.90;;;24.30;;
68126;SDS011;54931;52.098;21.006;2024-02-28T10:48:58;46.80;;;24.30;;
68126;SDS011;54931;52.098;21.006;2024-02-28T10:51:26;49.50;;;25.30;;
68126;SDS011;54931;52.098;21.006;2024-02-28T10:54:07;49.20;;;23.90;;
68126;SDS011;54931;52.098;21.006;2024-02-28T10:56:42;44.30;;;21.90;;
68126;SDS011;54931;52.098;21.006;2024-02-28T10:59:11;49.10;;;24.80;;
68126;SDS011;54931;52.098;21.006;2024-02-28T11:01:43;49.20;;;25.00;;
68126;SDS011;54931;52.098;21.006;2024-02-28T11:04:13;44.30;;;22.90;;
68126;SDS011;54931;52.098;21.006;2024-02-28T11:06:50;47.90;;;25.20;;
68126;SDS011;54931;52.098;21.006;2024-02-28T11:11:51;49.50;;;23.90;;
68126;SDS011;54931;52.098;21.006;2024-02-28T11:14:21;45.60;;;24.80;;
68126;SDS011;54931;52.098;21.006;2024-02-28T11:17:02;46.90;;;23.00;;
68126;SDS011;54931;52.098;21.006;2024-02-28T11:19:31;42.80;;;21.90;;
68126;SDS011;54931;52.098;21.006;2024-02-28T11:22:00;49.10;;;23.70;;
68126;SDS011;54931;52.098;21.006;2024-02-28T11:24:33;48.00;;;23.80;;
68126;SDS011;54931;52.098;21.006;2024-02-28T11:27:03;47.80;;;24.50;;
68126;SDS011;54931;52.098;21.006;2024-02-28T11:29:33;47.20;;;23.50;;
68126;SDS011;54931;52.098;21.006;2024-02-28T11:32:00;43.30;;;22.80;;
68126;SDS011;54931;52.098;21.006;2024-02-28T11:34:28;44.00;;;23.20;;
68126;SDS011;54931;52.098;21.006;2024-02-28T11:36:56;48.00;;;23.50;;
68126;SDS011;54931;52.098;21.006;2024-02-28T11:39:25;35.40;;;18.50;;
68126;SDS011;54931;52.098;21.006;2024-02-28T11:41:53;45.30;;;22.10;;
68126;SDS011;54931;52.098;21.006;2024-02-28T11:44:21;45.60;;;22.30;;
68126;SDS011;54931;52.098;21.006;2024-02-28T11:46:49;43.90;;;22.90;;
68126;SDS011;54931;52.098;21.006;2024-02-28T11:49:17;44.30;;;22.10;;
68126;SDS011;54931;52.098;21.006;2024-02-28T11:51:45;52.00;;;24.60;;
68126;SDS011;54931;52.098;21.006;2024-02-28T11:54:13;53.10;;;26.40;;
68126;SDS011;54931;52.098;21.006;2024-02-28T11:56:41;49.20;;;25.70;;
68126;SDS011;54931;52.098;21.006;2024-02-28T11:59:11;55.00;;;26.10;;
68126;SDS011;54931;52.098;21.006;2024-02-28T12:01:41;54.40;;;27.10;;
68126;SDS011;54931;52.098;21.006;2024-02-28T12:04:17;60.60;;;26.60;;
68126;SDS011;54931;52.098;21.006;2024-02-28T12:06:45;54.40;;;26.90;;
68126;SDS011;54931;52.098;21.006;2024-02-28T12:09:14;54.80;;;26.90;;
68126;SDS011;54931;52.098;21.006;2024-02-28T12:11:42;56.70;;;25.80;;
68126;SDS011;54931;52.098;21.006;2024-02-28T12:14:12;58.70;;;26.30;;
68126;SDS011;54931;52.098;21.006;2024-02-28T12:16:40;51.30;;;25.50;;
68126;SDS011;54931;52.098;21.006;2024-02-28T12:19:12;45.80;;;23.00;;
68126;SDS011;54931;52.098;21.006;2024-02-28T12:21:40;48.70;;;24.60;;
68126;SDS011;54931;52.098;21.006;2024-02-28T12:24:09;48.20;;;22.30;;
68126;SDS011;54931;52.098;21.006;2024-02-28T12:26:38;50.20;;;23.50;;
68126;SDS011;54931;52.098;21.006;2024-02-28T12:29:07;53.40;;;23.80;;
68126;SDS011;54931;52.098;21.006;2024-02-28T12:31:38;46.30;;;22.00;;
68126;SDS011;54931;52.098;21.006;2024-02-28T12:34:06;51.00;;;23.30;;
68126;SDS011;54931;52.098;21.006;2024-02-28T12:36:34;55.80;;;23.30;;
68126;SDS011;54931;52.098;21.006;2024-02-28T12:39:02;82.00;;;37.10;;
68126;SDS011;54931;52.098;21.006;2024-02-28T12:41:30;89.10;;;41.30;;
68126;SDS011;54931;52.098;21.006;2024-02-28T12:43:58;96.40;;;41.40;;
68126;SDS011;54931;52.098;21.006;2024-02-28T12:46:26;93.10;;;42.20;;
68126;SDS011;54931;52.098;21.006;2024-02-28T12:48:54;100.40;;;42.50;;
68126;SDS011;54931;52.098;21.006;2024-02-28T12:54:13;96.00;;;41.30;;
68126;SDS011;54931;52.098;21.006;2024-02-28T12:56:44;102.50;;;41.90;;
68126;SDS011;54931;52.098;21.006;2024-02-28T12:59:13;96.20;;;41.10;;
68126;SDS011;54931;52.098;21.006;2024-02-28T13:01:41;95.70;;;41.50;;
68126;SDS011;54931;52.098;21.006;2024-02-28T13:04:10;100.10;;;43.00;;
68126;SDS011;54931;52.098;21.006;2024-02-28T13:06:38;98.40;;;41.60;;
68126;SDS011;54931;52.098;21.006;2024-02-28T13:09:06;92.10;;;40.70;;
68126;SDS011;54931;52.098;21.006;2024-02-28T13:11:39;94.30;;;39.90;;
68126;SDS011;54931;52.098;21.006;2024-02-28T13:14:07;100.30;;;40.80;;
68126;SDS011;54931;52.098;21.006;2024-02-28T13:16:38;101.60;;;39.70;;
68126;SDS011;54931;52.098;21.006;2024-02-28T13:19:05;87.20;;;37.60;;
68126;SDS011;54931;52.098;21.006;2024-02-28T13:21:33;90.50;;;37.20;;
68126;SDS011;54931;52.098;21.006;2024-02-28T13:24:01;92.90;;;38.10;;
68126;SDS011;54931;52.098;21.006;2024-02-28T13:26:29;97.30;;;35.80;;
68126;SDS011;54931;52.098;21.006;2024-02-28T13:28:57;89.80;;;36.40;;
68126;SDS011;54931;52.098;21.006;2024-02-28T13:31:25;94.00;;;36.90;;
68126;SDS011;54931;52.098;21.006;2024-02-28T13:33:53;88.20;;;34.80;;
68126;SDS011;54931;52.098;21.006;2024-02-28T13:36:21;89.10;;;37.90;;
68126;SDS011;54931;52.098;21.006;2024-02-28T13:38:48;90.90;;;36.40;;
68126;SDS011;54931;52.098;21.006;2024-02-28T13:41:17;94.80;;;37.90;;
68126;SDS011;54931;52.098;21.006;2024-02-28T13:43:45;88.90;;;36.40;;
68126;SDS011;54931;52.098;21.006;2024-02-28T13:46:12;96.90;;;36.00;;
68126;SDS011;54931;52.098;21.006;2024-02-28T13:48:41;100.30;;;37.20;;
68126;SDS011;54931;52.098;21.006;2024-02-28T13:51:10;105.40;;;38.50;;
68126;SDS011;54931;52.098;21.006;2024-02-28T13:53:39;97.20;;;38.70;;
68126;SDS011;54931;52.098;21.006;2024-02-28T13:56:07;98.50;;;36.40;;
68126;SDS011;54931;52.098;21.006;2024-02-28T13:58:35;97.40;;;37.10;;
68126;SDS011;54931;52.098;21.006;2024-02-28T14:01:03;95.50;;;35.50;;
68126;SDS011;54931;52.098;21.006;2024-02-28T14:03:33;94.60;;;37.20;;
68126;SDS011;54931;52.098;21.006;2024-02-28T14:06:01;85.00;;;34.90;;
68126;SDS011;54931;52.098;21.006;2024-02-28T14:08:29;83.40;;;32.20;;
68126;SDS011;54931;52.098;21.006;2024-02-28T14:10:57;82.20;;;31.50;;
68126;SDS011;54931;52.098;21.006;2024-02-28T14:13:25;78.80;;;31.70;;
68126;SDS011;54931;52.098;21.006;2024-02-28T14:15:53;83.00;;;31.50;;
68126;SDS011;54931;52.098;21.006;2024-02-28T14:18:21;75.60;;;28.70;;
68126;SDS011;54931;52.098;21.006;2024-02-28T14:20:50;84.50;;;32.20;;
68126;SDS011;54931;52.098;21.006;2024-02-28T14:23:18;82.20;;;32.40;;
68126;SDS011;54931;52.098;21.006;2024-02-28T14:25:45;75.20;;;30.20;;
68126;SDS011;54931;52.098;21.006;2024-02-28T14:28:13;74.30;;;29.90;;
68126;SDS011;54931;52.098;21.006;2024-02-28T14:30:41;76.90;;;30.40;;